createdAt,value
2018-05-08T00:00:41.567Z,17.56
2018-05-08T00:03:10.131Z,17.53
2018-05-08T00:05:38.748Z,17.48
2018-05-08T00:08:07.304Z,17.51
2018-05-08T00:10:35.879Z,17.54
2018-05-08T00:13:04.466Z,17.50
2018-05-08T00:15:33.061Z,17.47
2018-05-08T00:18:01.628Z,17.42
2018-05-08T00:20:30.231Z,17.38
2018-05-08T00:22:58.470Z,17.42
2018-05-08T00:25:27.077Z,17.41
2018-05-08T00:27:55.747Z,17.40
2018-05-08T00:30:24.448Z,17.41
2018-05-08T00:32:53.011Z,17.44
2018-05-08T00:35:21.585Z,17.46
2018-05-08T00:37:50.148Z,17.47
2018-05-08T00:40:18.696Z,17.50
2018-05-08T00:42:47.260Z,17.52
2018-05-08T00:45:15.813Z,17.49
2018-05-08T00:47:44.426Z,17.43
2018-05-08T00:50:12.991Z,17.39
2018-05-08T00:52:41.564Z,17.42
2018-05-08T00:55:10.113Z,17.39
2018-05-08T00:57:38.701Z,17.42
2018-05-08T01:00:07.306Z,17.42
2018-05-08T01:02:35.867Z,17.42
2018-05-08T01:05:04.419Z,17.43
2018-05-08T01:07:33.012Z,17.43
2018-05-08T01:10:01.698Z,17.45
2018-05-08T01:12:30.255Z,17.39
2018-05-08T01:14:58.838Z,17.38
2018-05-08T01:17:27.402Z,17.26
2018-05-08T01:19:56.645Z,17.14
2018-05-08T01:22:25.200Z,16.94
2018-05-08T01:24:53.774Z,16.90
2018-05-08T01:27:22.335Z,16.83
2018-05-08T01:29:51.056Z,16.71
2018-05-08T01:32:19.620Z,16.65
2018-05-08T01:34:48.188Z,16.67
2018-05-08T01:37:17.725Z,16.69
2018-05-08T01:39:46.332Z,16.66
2018-05-08T01:42:14.780Z,16.66
2018-05-08T01:44:43.461Z,16.59
2018-05-08T01:47:12.060Z,16.55
2018-05-08T01:49:41.597Z,16.56
2018-05-08T01:52:10.331Z,16.57
2018-05-08T01:54:38.748Z,16.56
2018-05-08T01:57:07.323Z,16.55
2018-05-08T01:59:35.891Z,16.56
2018-05-08T02:02:03.907Z,16.53
2018-05-08T02:04:32.492Z,16.49
2018-05-08T02:07:00.882Z,16.49
2018-05-08T02:09:29.471Z,16.47
2018-05-08T02:11:58.024Z,16.43
2018-05-08T02:14:26.588Z,16.41
2018-05-08T02:16:55.151Z,16.37
2018-05-08T02:19:23.483Z,16.36
2018-05-08T02:21:52.073Z,16.32
2018-05-08T02:24:22.033Z,16.27
2018-05-08T02:26:50.743Z,16.27
2018-05-08T02:29:19.296Z,16.27
2018-05-08T02:31:47.876Z,16.28
2018-05-08T02:34:16.431Z,16.26
2018-05-08T02:36:45.047Z,16.31
2018-05-08T02:39:13.600Z,16.32
2018-05-08T02:41:42.150Z,16.29
2018-05-08T02:44:10.715Z,16.29
2018-05-08T02:46:39.274Z,16.30
2018-05-08T02:49:07.828Z,16.31
2018-05-08T02:51:36.400Z,16.28
2018-05-08T02:54:04.967Z,16.30
2018-05-08T02:56:33.570Z,16.34
2018-05-08T02:59:02.133Z,16.33
2018-05-08T03:01:30.698Z,16.26
2018-05-08T03:03:59.273Z,16.27
2018-05-08T03:06:27.829Z,16.30
2018-05-08T03:08:56.159Z,16.24
2018-05-08T03:11:24.765Z,16.17
2018-05-08T03:13:53.373Z,16.15
2018-05-08T03:16:21.937Z,16.11
2018-05-08T03:18:49.851Z,16.09
2018-05-08T03:21:18.407Z,16.05
2018-05-08T03:23:46.979Z,16.05
2018-05-08T03:26:15.550Z,16.09
2018-05-08T03:28:44.111Z,16.05
2018-05-08T03:31:12.668Z,16.07
2018-05-08T03:33:41.229Z,16.11
2018-05-08T03:36:09.807Z,16.13
2018-05-08T03:38:38.411Z,16.20
2018-05-08T03:41:06.966Z,16.22
2018-05-08T03:43:35.513Z,16.24
2018-05-08T03:46:04.070Z,16.33
2018-05-08T03:48:32.664Z,16.34
2018-05-08T03:51:01.005Z,16.35
2018-05-08T03:53:29.580Z,16.39
2018-05-08T03:55:58.240Z,16.39
2018-05-08T03:58:26.848Z,16.40
2018-05-08T04:01:06.397Z,16.45
2018-05-08T04:03:46.085Z,16.48
2018-05-08T04:06:30.599Z,16.50
2018-05-08T04:08:59.158Z,16.64
2018-05-08T04:11:27.737Z,16.70
2018-05-08T04:13:56.325Z,16.78
2018-05-08T04:16:24.895Z,16.85
2018-05-08T04:18:53.456Z,16.89
2018-05-08T04:21:22.014Z,16.83
2018-05-08T04:23:50.596Z,16.87
2018-05-08T04:26:19.163Z,16.96
2018-05-08T04:28:47.743Z,17.04
2018-05-08T04:31:16.303Z,17.12
2018-05-08T04:33:44.873Z,17.22
2018-05-08T04:36:13.432Z,17.22
2018-05-08T04:38:42.015Z,17.17
2018-05-08T04:41:10.604Z,17.10
2018-05-08T04:43:39.185Z,17.14
2018-05-08T04:46:07.769Z,17.12
2018-05-08T04:48:36.336Z,17.02
2018-05-08T04:51:04.896Z,17.18
2018-05-08T04:53:33.456Z,17.69
2018-05-08T04:56:02.046Z,18.21
2018-05-08T04:58:30.611Z,18.78
2018-05-08T05:00:59.186Z,19.48
2018-05-08T05:03:27.764Z,20.09
2018-05-08T05:05:56.414Z,20.53
2018-05-08T05:08:25.123Z,20.88
2018-05-08T05:10:53.781Z,21.43
2018-05-08T05:13:22.340Z,21.19
2018-05-08T05:15:50.956Z,21.12
2018-05-08T05:18:19.526Z,21.09
2018-05-08T05:20:48.127Z,20.83
2018-05-08T05:23:16.752Z,20.78
2018-05-08T05:25:45.363Z,20.74
2018-05-08T05:28:13.929Z,20.41
2018-05-08T05:30:42.527Z,20.02
2018-05-08T05:33:11.091Z,19.79
2018-05-08T05:35:39.667Z,19.58
2018-05-08T05:38:08.262Z,19.25
2018-05-08T05:40:36.833Z,19.19
2018-05-08T05:43:05.599Z,19.16
2018-05-08T05:45:34.168Z,19.31
2018-05-08T05:48:02.738Z,19.38
2018-05-08T05:50:31.307Z,19.31
2018-05-08T05:52:59.901Z,19.49
2018-05-08T05:55:28.485Z,19.47
2018-05-08T05:57:57.050Z,19.51
2018-05-08T06:00:25.672Z,19.53
2018-05-08T06:02:54.241Z,19.54
2018-05-08T06:05:22.580Z,19.56
2018-05-08T06:07:51.141Z,19.57
2018-05-08T06:10:19.938Z,19.59
2018-05-08T06:12:48.540Z,19.51
2018-05-08T06:15:17.112Z,19.50
2018-05-08T06:17:45.723Z,19.63
2018-05-08T06:20:14.344Z,19.66
2018-05-08T06:22:42.962Z,19.72
2018-05-08T06:25:11.529Z,19.80
2018-05-08T06:27:40.109Z,19.77
2018-05-08T06:30:08.732Z,19.55
2018-05-08T06:32:37.292Z,19.56
2018-05-08T06:35:06.072Z,19.60
2018-05-08T06:37:34.633Z,19.59
2018-05-08T06:40:03.278Z,19.71
2018-05-08T06:42:32.033Z,19.87
2018-05-08T06:45:00.617Z,19.84
2018-05-08T06:47:29.375Z,19.82
2018-05-08T06:49:57.985Z,19.98
2018-05-08T06:52:26.584Z,20.12
2018-05-08T06:54:55.214Z,20.10
2018-05-08T06:57:23.821Z,20.00
2018-05-08T06:59:52.406Z,20.14
2018-05-08T07:02:21.194Z,20.12
2018-05-08T07:04:49.742Z,20.04
2018-05-08T07:07:18.332Z,19.86
2018-05-08T07:09:46.667Z,19.91
2018-05-08T07:12:15.215Z,19.90
2018-05-08T07:14:43.782Z,20.02
2018-05-08T07:17:12.359Z,20.10
2018-05-08T07:19:40.926Z,20.35
2018-05-08T07:22:09.561Z,20.39
2018-05-08T07:24:38.120Z,20.41
2018-05-08T07:27:06.699Z,20.42
2018-05-08T07:29:35.334Z,20.72
2018-05-08T07:32:03.901Z,21.01
2018-05-08T07:34:32.453Z,21.31
2018-05-08T07:37:01.019Z,21.34
2018-05-08T07:39:29.590Z,21.30
2018-05-08T07:41:58.156Z,21.19
2018-05-08T07:44:26.767Z,21.11
2018-05-08T07:46:55.332Z,21.08
2018-05-08T07:49:23.882Z,21.09
2018-05-08T07:51:52.486Z,20.93
2018-05-08T07:54:21.055Z,20.52
2018-05-08T07:56:49.608Z,20.50
2018-05-08T07:59:18.202Z,20.25
2018-05-08T08:01:46.766Z,20.32
2018-05-08T08:04:15.319Z,20.43
2018-05-08T08:06:43.964Z,20.54
2018-05-08T08:09:12.522Z,20.70
2018-05-08T08:11:41.076Z,20.91
2018-05-08T08:14:09.657Z,20.89
2018-05-08T08:16:38.268Z,20.96
2018-05-08T08:19:06.900Z,21.22
2018-05-08T08:21:35.313Z,21.30
2018-05-08T08:24:04.162Z,21.45
2018-05-08T08:26:32.741Z,21.38
2018-05-08T08:29:01.352Z,21.28
2018-05-08T08:31:29.957Z,21.22
2018-05-08T08:33:58.642Z,21.30
2018-05-08T08:36:27.384Z,21.20
2018-05-08T08:39:29.671Z,21.25
2018-05-08T08:41:58.236Z,21.28
2018-05-08T08:44:26.807Z,21.41
2018-05-08T08:46:57.028Z,21.76
2018-05-08T08:49:25.409Z,21.97
2018-05-08T08:51:54.126Z,22.08
2018-05-08T08:54:22.706Z,22.24
2018-05-08T08:56:51.290Z,22.35
2018-05-08T08:59:19.867Z,22.26
2018-05-08T09:01:48.440Z,22.23
2018-05-08T09:04:16.996Z,22.12
2018-05-08T09:06:45.551Z,21.99
2018-05-08T09:09:14.183Z,21.76
2018-05-08T09:11:42.739Z,21.74
2018-05-08T09:14:11.081Z,21.59
2018-05-08T09:16:39.631Z,21.66
2018-05-08T09:19:08.189Z,21.74
2018-05-08T09:21:36.829Z,21.76
2018-05-08T09:24:05.398Z,21.68
2018-05-08T09:26:34.149Z,21.69
2018-05-08T09:29:02.713Z,21.90
2018-05-08T09:31:31.280Z,22.01
2018-05-08T09:33:59.877Z,22.01
2018-05-08T09:36:28.452Z,22.06
2018-05-08T09:38:57.032Z,22.08
2018-05-08T09:41:25.611Z,22.10
2018-05-08T09:43:54.180Z,22.14
2018-05-08T09:46:22.938Z,22.29
2018-05-08T09:48:51.621Z,22.10
2018-05-08T09:51:20.295Z,22.27
2018-05-08T09:53:48.864Z,22.24
2018-05-08T09:56:17.435Z,22.27
2018-05-08T09:58:45.992Z,22.51
2018-05-08T10:01:14.562Z,22.61
2018-05-08T10:03:43.155Z,22.66
2018-05-08T10:06:11.719Z,22.62
2018-05-08T10:08:40.310Z,22.73
2018-05-08T10:11:08.872Z,22.61
2018-05-08T10:13:37.474Z,22.30
2018-05-08T10:16:05.799Z,22.20
2018-05-08T10:18:34.408Z,22.42
2018-05-08T10:21:03.050Z,22.46
2018-05-08T10:23:31.657Z,22.52
2018-05-08T10:26:00.274Z,22.46
2018-05-08T10:28:28.842Z,22.56
2018-05-08T10:30:57.449Z,22.53
2018-05-08T10:33:26.016Z,22.55
2018-05-08T10:35:54.595Z,22.64
2018-05-08T10:38:23.221Z,22.66
2018-05-08T10:40:51.793Z,22.62
2018-05-08T10:43:20.121Z,22.65
2018-05-08T10:45:48.735Z,22.48
2018-05-08T10:48:17.339Z,22.49
2018-05-08T10:50:45.946Z,22.55
2018-05-08T10:53:14.543Z,22.61
2018-05-08T10:55:43.235Z,22.66
2018-05-08T10:58:11.911Z,22.83
2018-05-08T11:00:40.467Z,22.86
2018-05-08T11:03:09.079Z,22.82
2018-05-08T11:05:37.631Z,22.76
2018-05-08T11:08:06.187Z,22.71
2018-05-08T11:10:34.746Z,22.75
2018-05-08T11:13:03.300Z,22.81
2018-05-08T11:15:31.875Z,22.79
2018-05-08T11:18:00.492Z,22.78
2018-05-08T11:20:29.231Z,22.76
2018-05-08T11:22:57.818Z,22.82
2018-05-08T11:25:26.437Z,22.93
2018-05-08T11:27:54.987Z,23.00
2018-05-08T11:30:23.614Z,23.12
2018-05-08T11:32:52.174Z,23.20
2018-05-08T11:35:20.738Z,23.05
2018-05-08T11:37:49.335Z,23.00
2018-05-08T11:40:17.893Z,22.98
2018-05-08T11:42:46.480Z,23.11
2018-05-08T11:45:15.051Z,23.24
2018-05-08T11:47:43.645Z,23.18
2018-05-08T11:50:12.251Z,23.19
2018-05-08T11:52:40.815Z,23.21
2018-05-08T11:55:09.383Z,23.20
2018-05-08T11:57:37.990Z,23.25
2018-05-08T12:00:06.589Z,23.34
2018-05-08T12:02:35.235Z,23.31
2018-05-08T12:05:04.002Z,23.30
2018-05-08T12:07:32.567Z,23.40
2018-05-08T12:10:01.147Z,23.30
2018-05-08T12:12:29.748Z,23.43
2018-05-08T12:14:58.294Z,23.53
2018-05-08T12:17:26.895Z,23.52
2018-05-08T12:19:55.456Z,23.52
2018-05-08T12:22:24.123Z,23.56
2018-05-08T12:24:52.704Z,23.63
2018-05-08T12:27:21.367Z,23.75
2018-05-08T12:29:49.932Z,23.63
2018-05-08T12:32:18.517Z,23.74
2018-05-08T12:34:47.115Z,23.76
2018-05-08T12:37:15.716Z,23.80
2018-05-08T12:39:44.314Z,24.01
2018-05-08T12:42:12.711Z,23.98
2018-05-08T12:44:41.244Z,24.03
2018-05-08T12:47:09.722Z,24.11
2018-05-08T12:49:38.320Z,24.08
2018-05-08T12:52:06.928Z,24.22
2018-05-08T12:54:35.485Z,24.23
2018-05-08T12:57:03.684Z,24.35
2018-05-08T12:59:32.268Z,24.18
2018-05-08T13:02:01.048Z,24.05
2018-05-08T13:04:29.636Z,23.99
2018-05-08T13:06:58.201Z,24.18
2018-05-08T13:09:27.422Z,24.43
2018-05-08T13:11:55.975Z,24.61
2018-05-08T13:14:24.567Z,24.79
2018-05-08T13:16:53.120Z,24.95
2018-05-08T13:19:21.671Z,25.00
2018-05-08T13:21:50.231Z,24.97
2018-05-08T13:24:18.840Z,25.08
2018-05-08T13:26:47.401Z,24.81
2018-05-08T13:29:15.961Z,24.79
2018-05-08T13:31:44.566Z,24.15
2018-05-08T13:34:13.134Z,23.82
2018-05-08T13:36:41.710Z,23.89
2018-05-08T13:39:10.564Z,23.98
2018-05-08T13:41:39.122Z,23.91
2018-05-08T13:44:07.686Z,23.87
2018-05-08T13:46:36.254Z,23.82
2018-05-08T13:49:04.834Z,23.77
2018-05-08T13:51:33.405Z,23.74
2018-05-08T13:54:02.001Z,23.72
2018-05-08T13:56:30.564Z,23.63
2018-05-08T13:58:59.149Z,23.55
2018-05-08T14:01:27.716Z,23.55
2018-05-08T14:03:56.273Z,23.69
2018-05-08T14:06:24.827Z,23.58
2018-05-08T14:08:53.422Z,23.45
2018-05-08T14:11:21.986Z,23.45
2018-05-08T14:13:50.547Z,23.22
2018-05-08T14:16:19.159Z,23.20
2018-05-08T14:18:47.717Z,23.25
2018-05-08T14:21:16.277Z,23.10
2018-05-08T14:23:44.843Z,23.02
2018-05-08T14:26:13.403Z,23.06
2018-05-08T14:28:41.967Z,23.06
2018-05-08T14:31:10.601Z,23.03
2018-05-08T14:33:39.172Z,23.14
2018-05-08T14:36:07.758Z,23.02
2018-05-08T14:38:36.406Z,23.21
2018-05-08T14:41:05.166Z,23.37
2018-05-08T14:43:33.741Z,23.43
2018-05-08T14:46:02.473Z,23.40
2018-05-08T14:48:31.019Z,23.37
2018-05-08T14:50:59.692Z,23.41
2018-05-08T14:53:28.261Z,23.53
2018-05-08T14:55:56.838Z,23.53
2018-05-08T14:58:25.408Z,23.42
2018-05-08T15:00:53.955Z,23.45
2018-05-08T15:03:22.510Z,23.59
2018-05-08T15:05:51.126Z,23.63
2018-05-08T15:08:19.692Z,23.77
2018-05-08T15:10:48.251Z,23.74
2018-05-08T15:13:16.821Z,23.75
2018-05-08T15:15:45.564Z,23.68
2018-05-08T15:18:14.178Z,23.69
2018-05-08T15:20:42.777Z,23.62
2018-05-08T15:23:11.332Z,23.63
2018-05-08T15:25:39.907Z,23.73
2018-05-08T15:28:08.501Z,23.77
2018-05-08T15:30:37.941Z,23.78
2018-05-08T15:33:07.011Z,23.81
2018-05-08T15:35:35.565Z,23.88
2018-05-08T15:38:04.131Z,23.99
2018-05-08T15:40:32.714Z,24.08
2018-05-08T15:43:01.277Z,24.18
2018-05-08T15:45:29.819Z,24.25
2018-05-08T15:47:58.368Z,24.22
2018-05-08T15:50:26.963Z,24.10
2018-05-08T15:52:55.520Z,23.98
2018-05-08T15:55:24.094Z,23.80
2018-05-08T15:57:52.701Z,23.63
2018-05-08T16:00:21.301Z,23.43
2018-05-08T16:02:49.852Z,23.08
2018-05-08T16:05:18.448Z,23.04
2018-05-08T16:07:47.338Z,22.96
2018-05-08T16:10:16.132Z,22.81
2018-05-08T16:12:44.717Z,22.74
2018-05-08T16:15:13.281Z,22.71
2018-05-08T16:17:41.856Z,22.59
2018-05-08T16:20:10.424Z,22.45
2018-05-08T16:22:38.983Z,22.35
2018-05-08T16:25:07.594Z,22.26
2018-05-08T16:27:36.187Z,22.19
2018-05-08T16:30:08.855Z,22.14
2018-05-08T16:32:38.359Z,22.15
2018-05-08T16:35:06.913Z,22.19
2018-05-08T16:37:35.469Z,22.22
2018-05-08T16:40:03.799Z,22.24
2018-05-08T16:42:32.399Z,22.15
2018-05-08T16:45:00.961Z,22.16
2018-05-08T16:47:29.515Z,22.10
2018-05-08T16:50:00.157Z,22.14
2018-05-08T16:52:28.751Z,22.18
2018-05-08T16:54:57.361Z,22.14
2018-05-08T16:57:25.936Z,22.19
2018-05-08T16:59:54.493Z,22.13
2018-05-08T17:02:23.555Z,22.09
2018-05-08T17:04:52.177Z,22.04
2018-05-08T17:07:20.867Z,21.87
2018-05-08T17:09:49.463Z,21.75
2018-05-08T17:12:18.020Z,21.69
2018-05-08T17:14:47.459Z,21.71
2018-05-08T17:17:16.749Z,21.70
2018-05-08T17:19:45.581Z,21.72
2018-05-08T17:22:14.170Z,21.63
2018-05-08T17:24:42.491Z,21.63
2018-05-08T17:27:11.118Z,21.56
2018-05-08T17:29:39.672Z,21.45
2018-05-08T17:32:08.238Z,21.36
2018-05-08T17:34:36.861Z,21.37
2018-05-08T17:37:05.419Z,21.37
2018-05-08T17:39:34.007Z,21.35
2018-05-08T17:42:03.421Z,21.31
2018-05-08T17:44:31.976Z,21.28
2018-05-08T17:47:02.024Z,21.26
2018-05-08T17:49:30.587Z,21.31
2018-05-08T17:51:59.250Z,21.28
2018-05-08T17:54:28.560Z,21.25
2018-05-08T17:56:57.153Z,21.21
2018-05-08T17:59:25.790Z,21.24
2018-05-08T18:01:54.369Z,21.20
2018-05-08T18:04:23.066Z,21.23
2018-05-08T18:06:51.723Z,21.18
2018-05-08T18:09:20.283Z,21.17
2018-05-08T18:11:48.904Z,21.16
2018-05-08T18:14:23.410Z,21.15
2018-05-08T18:16:51.999Z,21.07
2018-05-08T18:19:20.554Z,21.10
2018-05-08T18:21:49.116Z,21.12
2018-05-08T18:24:17.744Z,21.15
2018-05-08T18:26:46.406Z,21.18
2018-05-08T18:29:14.994Z,21.19
2018-05-08T18:31:49.336Z,21.19
2018-05-08T18:34:18.217Z,21.20
2018-05-08T18:36:46.787Z,21.21
2018-05-08T18:39:15.343Z,21.13
2018-05-08T18:41:43.947Z,21.09
2018-05-08T18:44:12.511Z,20.99
2018-05-08T18:46:41.148Z,20.92
2018-05-08T18:49:09.740Z,20.89
2018-05-08T18:51:38.345Z,20.84
2018-05-08T18:54:06.995Z,20.82
2018-05-08T18:56:35.568Z,20.77
2018-05-08T18:59:04.147Z,20.74
2018-05-08T19:01:32.747Z,20.68
2018-05-08T19:04:01.339Z,20.63
2018-05-08T19:06:29.897Z,20.52
2018-05-08T19:08:58.468Z,20.44
2018-05-08T19:11:32.431Z,20.40
2018-05-08T19:14:01.048Z,20.37
2018-05-08T19:16:29.639Z,20.30
2018-05-08T19:19:03.600Z,20.30
2018-05-08T19:21:32.180Z,20.29
2018-05-08T19:24:06.252Z,20.27
2018-05-08T19:26:34.898Z,20.26
2018-05-08T19:29:09.096Z,20.21
2018-05-08T19:31:37.646Z,20.18
2018-05-08T19:34:06.251Z,20.17
2018-05-08T19:36:40.225Z,20.16
2018-05-08T19:39:08.824Z,20.13
2018-05-08T19:41:38.387Z,20.10
2018-05-08T19:44:07.793Z,20.10
2018-05-08T19:46:36.376Z,20.12
2018-05-08T19:49:05.025Z,20.05
2018-05-08T19:51:33.599Z,20.04
2018-05-08T19:54:02.200Z,19.98
2018-05-08T19:56:30.828Z,19.92
2018-05-08T19:58:59.407Z,19.90
2018-05-08T20:01:28.002Z,19.86
2018-05-08T20:03:56.639Z,19.86
2018-05-08T20:06:25.242Z,19.82
2018-05-08T20:08:53.871Z,19.80
2018-05-08T20:11:23.408Z,19.74
2018-05-08T20:13:52.017Z,19.72
2018-05-08T20:16:20.655Z,19.68
2018-05-08T20:18:49.217Z,19.64
2018-05-08T20:21:17.799Z,19.62
2018-05-08T20:23:46.402Z,19.58
2018-05-08T20:26:14.981Z,19.55
2018-05-08T20:28:43.754Z,19.46
2018-05-08T20:31:12.342Z,19.38
2018-05-08T20:33:41.944Z,19.34
2018-05-08T20:36:11.521Z,19.18
2018-05-08T20:38:39.962Z,19.01
2018-05-08T20:41:08.550Z,18.91
2018-05-08T20:43:37.117Z,18.83
2018-05-08T20:46:07.313Z,18.70
2018-05-08T20:48:35.874Z,18.59
2018-05-08T20:51:06.048Z,18.56
2018-05-08T20:53:34.643Z,18.44
2018-05-08T20:56:03.277Z,18.33
2018-05-08T20:58:31.640Z,18.25
2018-05-08T21:01:00.354Z,18.24
2018-05-08T21:03:29.365Z,18.22
2018-05-08T21:05:58.130Z,18.19
2018-05-08T21:08:27.869Z,18.15
2018-05-08T21:10:56.491Z,18.00
2018-05-08T21:13:25.051Z,17.95
2018-05-08T21:15:53.616Z,17.88
2018-05-08T21:18:22.183Z,17.79
2018-05-08T21:20:50.759Z,17.77
2018-05-08T21:23:19.327Z,17.73
2018-05-08T21:25:47.929Z,17.78
2018-05-08T21:28:21.924Z,17.76
2018-05-08T21:30:55.823Z,17.73
2018-05-08T21:33:24.381Z,17.66
2018-05-08T21:35:52.944Z,17.62
2018-05-08T21:38:21.486Z,17.62
2018-05-08T21:40:49.690Z,17.66
2018-05-08T21:43:18.242Z,17.66
2018-05-08T21:45:46.791Z,17.63
2018-05-08T21:48:15.343Z,17.62
2018-05-08T21:50:43.913Z,17.52
2018-05-08T21:53:12.577Z,17.51
2018-05-08T21:55:41.141Z,17.50
2018-05-08T21:58:09.710Z,17.49
2018-05-08T22:00:38.323Z,17.50
2018-05-08T22:03:06.884Z,17.54
2018-05-08T22:05:35.449Z,17.49
2018-05-08T22:08:04.000Z,17.35
2018-05-08T22:10:32.583Z,17.29
2018-05-08T22:13:01.174Z,17.25
2018-05-08T22:15:29.744Z,17.21
2018-05-08T22:17:58.322Z,17.16
2018-05-08T22:20:26.983Z,17.16
2018-05-08T22:22:55.548Z,17.11
2018-05-08T22:25:24.131Z,17.16
2018-05-08T22:27:52.756Z,17.17
2018-05-08T22:30:21.488Z,17.17
2018-05-08T22:32:50.047Z,17.15
2018-05-08T22:35:18.612Z,17.12
2018-05-08T22:37:47.236Z,17.10
2018-05-08T22:40:15.798Z,17.08
2018-05-08T22:42:44.415Z,17.06
2018-05-08T22:45:13.034Z,17.06
2018-05-08T22:47:41.721Z,17.05
2018-05-08T22:50:10.309Z,17.03
2018-05-08T22:52:38.901Z,16.96
2018-05-08T22:55:07.455Z,16.92
2018-05-08T22:57:36.065Z,16.88
2018-05-08T23:00:05.936Z,16.87
2018-05-08T23:02:34.509Z,16.84
2018-05-08T23:05:03.269Z,16.85
2018-05-08T23:07:31.850Z,16.84
2018-05-08T23:10:00.469Z,16.85
2018-05-08T23:12:29.031Z,16.84
2018-05-08T23:14:57.632Z,16.81
2018-05-08T23:17:26.212Z,16.77
2018-05-08T23:19:54.966Z,16.69
2018-05-08T23:22:23.571Z,16.64
2018-05-08T23:24:52.159Z,16.62
2018-05-08T23:27:20.706Z,16.62
2018-05-08T23:29:49.304Z,16.52
2018-05-08T23:32:17.871Z,16.44
2018-05-08T23:34:46.442Z,16.39
2018-05-08T23:37:14.998Z,16.37
2018-05-08T23:39:43.603Z,16.32
2018-05-08T23:42:12.155Z,16.31
2018-05-08T23:44:40.727Z,16.29
2018-05-08T23:47:09.296Z,16.26
2018-05-08T23:49:37.892Z,16.18
2018-05-08T23:52:06.447Z,16.16
2018-05-08T23:54:35.042Z,16.11
2018-05-08T23:57:03.617Z,16.11
2018-05-08T23:59:32.167Z,16.12
